createdAt,value
2022-09-25T00:02:29.074Z,101442.69
2022-09-25T00:23:19.775Z,101433.87
2022-09-25T00:28:22.567Z,101437.19
2022-09-25T00:33:26.877Z,101442.03
2022-09-25T00:38:37.946Z,101429.22
2022-09-25T00:43:45.458Z,101426.09
2022-09-25T00:54:18.820Z,101426.09
2022-09-25T00:59:26.200Z,101422.31
2022-09-25T01:09:56.600Z,101423.41
2022-09-25T01:14:59.601Z,101415.81
2022-09-25T01:20:18.159Z,101418.34
2022-09-25T01:25:41.647Z,101422.78
2022-09-25T01:30:56.055Z,101423.41
2022-09-25T01:36:04.619Z,101418.78
2022-09-25T01:41:13.824Z,101417.53
2022-09-25T01:46:25.500Z,101411.69
2022-09-25T01:51:33.838Z,101415.88
2022-09-25T01:56:46.937Z,101417.56
2022-09-25T02:01:59.105Z,101412.13
2022-09-25T02:23:27.215Z,101398.06
2022-09-25T02:28:30.153Z,101390.91
2022-09-25T02:33:33.977Z,101401.62
2022-09-25T02:44:19.695Z,101409.66
2022-09-25T03:00:32.164Z,101410.50
2022-09-25T03:21:54.864Z,101393.69
2022-09-25T03:26:57.654Z,101401.03
2022-09-25T03:32:00.451Z,101398.31
2022-09-25T03:37:08.848Z,101392.66
2022-09-25T03:42:11.582Z,101384.03
2022-09-25T03:47:14.424Z,101386.56
2022-09-25T03:52:24.764Z,101385.50
2022-09-25T03:57:27.493Z,101385.31
2022-09-25T04:02:30.461Z,101373.72
2022-09-25T04:07:39.521Z,101370.19
2022-09-25T04:12:42.392Z,101371.66
2022-09-25T04:23:11.223Z,101375.03
2022-09-25T04:28:14.018Z,101369.34
2022-09-25T04:33:17.531Z,101365.75
2022-09-25T04:38:25.904Z,101368.69
2022-09-25T04:43:30.306Z,101376.25
2022-09-25T05:04:45.391Z,101356.53
2022-09-25T05:09:48.123Z,101364.28
2022-09-25T05:14:50.902Z,101361.34
2022-09-25T05:25:25.883Z,101380.88
2022-09-25T05:30:31.388Z,101370.81
2022-09-25T05:35:34.776Z,101380.69
2022-09-25T05:40:45.001Z,101372.06
2022-09-25T05:51:11.315Z,101381.09
2022-09-25T05:56:14.989Z,101380.06
2022-09-25T06:01:18.096Z,101376.25
2022-09-25T06:06:27.756Z,101365.13
2022-09-25T06:11:31.218Z,101364.53
2022-09-25T06:16:34.006Z,101368.91
2022-09-25T06:21:43.376Z,101363.91
2022-09-25T06:26:46.446Z,101362.44
2022-09-25T06:31:49.226Z,101360.53
2022-09-25T06:42:18.973Z,101370.41
2022-09-25T06:47:26.699Z,101370.84
2022-09-25T06:52:29.841Z,101365.16
2022-09-25T07:03:03.084Z,101363.06
2022-09-25T07:08:08.823Z,101360.53
2022-09-25T07:13:11.613Z,101362.22
2022-09-25T07:18:19.716Z,101363.06
2022-09-25T07:23:23.270Z,101364.75
2022-09-25T07:44:37.922Z,101373.06
2022-09-25T07:55:03.781Z,101374.94
2022-09-25T08:00:07.402Z,101377.03
2022-09-25T08:05:11.700Z,101379.97
2022-09-25T08:10:20.197Z,101378.06
2022-09-25T08:26:10.109Z,101373.91
2022-09-25T08:36:36.189Z,101364.38
2022-09-25T08:52:24.942Z,101332.78
2022-09-25T08:57:32.865Z,101344.38
2022-09-25T09:02:41.834Z,101346.41
2022-09-25T09:07:55.189Z,101351.31
2022-09-25T09:13:02.646Z,101341.47
2022-09-25T09:18:23.158Z,101343.41
2022-09-25T09:23:35.382Z,101339.88
2022-09-25T09:29:02.315Z,101334.78
2022-09-25T09:34:46.602Z,101328.84
2022-09-25T09:40:08.547Z,101328.09
2022-09-25T09:45:21.608Z,101326.28
2022-09-25T09:50:35.112Z,101325.41
2022-09-25T09:55:49.957Z,101316.50
2022-09-25T10:00:53.534Z,101316.88
2022-09-25T10:06:00.233Z,101317.72
2022-09-25T10:16:39.053Z,101304.69
2022-09-25T10:27:52.127Z,101292.84
2022-09-25T10:38:19.260Z,101292.88
2022-09-25T10:43:27.730Z,101289.59
2022-09-25T10:53:49.692Z,101294.03
2022-09-25T11:15:26.572Z,101272.19
2022-09-25T11:20:32.853Z,101266.50
2022-09-25T11:25:44.326Z,101256.97
2022-09-25T11:31:01.703Z,101253.19
2022-09-25T11:36:10.208Z,101242.56
2022-09-25T11:59:29.596Z,101227.47
2022-09-25T12:04:57.414Z,101227.22
2022-09-25T12:10:20.814Z,101224.47
2022-09-25T12:37:40.926Z,101189.63
2022-09-25T12:42:50.043Z,101181.94
2022-09-25T12:48:04.930Z,101178.19
2022-09-25T12:53:23.449Z,101166.72
2022-09-25T12:58:40.148Z,101164.94
2022-09-25T13:03:52.158Z,101158.38
2022-09-25T13:09:07.905Z,101155.66
2022-09-25T13:14:25.787Z,101152.44
2022-09-25T13:35:36.499Z,101126.38
2022-09-25T13:40:48.007Z,101116.59
2022-09-25T14:08:02.482Z,101097.25
2022-09-25T14:18:40.031Z,101090.03
2022-09-25T14:23:49.893Z,101091.63
2022-09-25T14:28:54.615Z,101077.78
2022-09-25T14:34:26.823Z,101080.50
2022-09-25T14:39:35.149Z,101077.44
2022-09-25T14:50:27.568Z,101056.59
2022-09-25T15:06:37.555Z,101044.47
2022-09-25T15:27:34.085Z,101036.22
2022-09-25T15:32:40.874Z,101024.16
2022-09-25T15:37:44.945Z,101025.44
2022-09-25T15:42:53.345Z,101030.34
2022-09-25T15:47:56.138Z,101026.09
2022-09-25T16:03:54.723Z,101006.56
2022-09-25T16:09:24.049Z,101004.13
2022-09-25T16:14:29.430Z,100995.16
2022-09-25T16:19:38.575Z,100997.81
2022-09-25T16:24:42.063Z,100985.31
2022-09-25T16:29:45.999Z,100988.72
2022-09-25T16:35:06.948Z,100983.91
2022-09-25T16:40:22.260Z,100985.16
2022-09-25T16:45:27.535Z,100988.94
2022-09-25T16:50:48.650Z,100994.13
2022-09-25T16:55:52.100Z,100990.50
2022-09-25T17:06:17.627Z,100984.47
2022-09-25T17:11:23.439Z,100981.16
2022-09-25T17:16:26.513Z,100989.25
2022-09-25T17:21:37.955Z,100976.16
2022-09-25T17:26:41.504Z,100968.03
2022-09-25T17:31:44.346Z,100961.28
2022-09-25T17:36:53.803Z,100958.69
2022-09-25T17:41:57.486Z,100958.84
2022-09-25T17:47:00.232Z,100953.50
2022-09-25T17:52:08.731Z,100956.66
2022-09-25T17:57:11.529Z,100954.56
2022-09-25T18:02:18.320Z,100951.97
2022-09-25T18:07:33.331Z,100945.53
2022-09-25T18:12:37.494Z,100944.63
2022-09-25T18:17:40.804Z,100938.44
2022-09-25T18:33:37.426Z,100939.06
2022-09-25T18:38:40.243Z,100930.28
2022-09-25T18:43:44.016Z,100929.78
2022-09-25T18:59:39.082Z,100918.34
2022-09-25T19:04:43.059Z,100923.03
2022-09-25T19:20:17.840Z,100917.00
2022-09-25T19:25:27.097Z,100909.47
2022-09-25T19:30:37.992Z,100909.97
2022-09-25T19:41:57.554Z,100895.13
2022-09-25T19:47:00.446Z,100892.91
2022-09-25T20:07:43.284Z,100881.72
2022-09-25T20:18:11.267Z,100864.66
2022-09-25T20:23:14.295Z,100853.84
2022-09-25T20:33:39.960Z,100851.06
2022-09-25T20:38:43.244Z,100838.03
2022-09-25T20:43:49.512Z,100843.06
2022-09-25T20:48:58.787Z,100837.09
2022-09-25T21:32:13.634Z,100806.53
2022-09-25T21:37:16.411Z,100801.16
2022-09-25T21:42:19.436Z,100808.00
2022-09-25T21:47:29.277Z,100803.69
2022-09-25T21:52:31.977Z,100809.22
2022-09-25T21:57:34.772Z,100807.22
2022-09-25T22:02:42.959Z,100804.91
2022-09-25T22:07:46.077Z,100798.63
2022-09-25T22:12:48.852Z,100805.16
2022-09-25T22:17:58.273Z,100800.75
2022-09-25T22:23:01.396Z,100792.91
2022-09-25T22:28:04.472Z,100801.12
2022-09-25T22:33:13.237Z,100793.75
2022-09-25T22:38:16.178Z,100783.41
2022-09-25T22:43:18.979Z,100786.37
2022-09-25T22:48:29.043Z,100779.47
2022-09-25T22:59:12.873Z,100772.91
2022-09-25T23:04:22.906Z,100775.22
2022-09-25T23:09:27.090Z,100769.84
2022-09-25T23:25:19.618Z,100753.16
2022-09-25T23:30:22.667Z,100757.97
2022-09-25T23:35:25.495Z,100747.91
2022-09-25T23:40:34.448Z,100748.84
2022-09-25T23:45:37.267Z,100743.00
2022-09-25T23:50:40.337Z,100742.81
2022-09-25T23:55:48.562Z,100729.03
